Azalea, Oregon
Current Conditions -  °F | °C
As of 8:56 PM on Sunday 19 Oct 2014 (Local Time) from KSXT Reporting Station
Clear Clear  
Wind Chill: 50°   Ceiling: Unl
Heat Index: 50°   Visibility: 10mi
Dew Point: 49°   Wind: 12mph
Humidity: 96%   Direction: 180°S
Pressure: 29.82"   Gusts: 20mph
Location:  42.8°N, 123.26°W
Report Text: KSXT 200356Z AUTO 18010G17KT 10SM CLR 10/09 A2982 RMK AO2 SLP080 T01000094
Loading
Personal Weather Stations






























Interactive Weather Map
Tropical Storm Tracking
New forecast layout! Learn more

10-Day Weather Forecast

Advertisements
Track Severe Weather on mobile